Time;durP1;ratioP1;P1;durP2;ratioP2;P2;SDS_P1;SDS_P2;PMS_P1;PMS_P2;Temp;Humidity;BMP_temperature;BMP_pressure;BME280_temperature;BME280_humidity;BME280_pressure;Samples;Min_cycle;Max_cycle;Signal;HPM_P1;HPM_P2
2021/03/20 00:01:10;;;;;;;9.48;7.68;;;;;;;;;;5060898;28;20217;-73
2021/03/20 00:03:36;;;;;;;10.07;7.28;;;;;;;;;;5052782;28;20714;-71
2021/03/20 00:06:02;;;;;;;9.07;8.27;;;;;;;;;;5066096;28;20170;-71
2021/03/20 00:08:28;;;;;;;8.02;7.22;;;;;;;;;;5070371;28;20415;-71
2021/03/20 00:10:55;;;;;;;7.67;6.90;;;;;;;;;;5070387;28;20211;-71
2021/03/20 00:13:22;;;;;;;8.02;7.32;;;;;;;;;;5068607;28;20935;-71
2021/03/20 00:15:48;;;;;;;8.13;7.43;;;;;;;;;;5053712;28;20185;-71
2021/03/20 00:18:14;;;;;;;8.57;7.68;;;;;;;;;;5063385;28;20182;-72
2021/03/20 00:20:41;;;;;;;9.27;8.43;;;;;;;;;;5067874;28;20315;-71
2021/03/20 00:23:08;;;;;;;8.23;7.45;;;;;;;;;;5059264;28;20194;-71
2021/03/20 00:25:34;;;;;;;9.82;7.30;;;;;;;;;;5054853;28;20193;-71
2021/03/20 00:28:02;;;;;;;10.70;7.25;;;;;;;;;;5069695;28;20184;-71
2021/03/20 00:30:28;;;;;;;10.27;7.50;;;;;;;;;;5057905;28;20611;-72
2021/03/20 00:32:54;;;;;;;8.73;7.88;;;;;;;;;;5063750;28;20775;-72
2021/03/20 00:35:21;;;;;;;7.88;7.07;;;;;;;;;;5058632;28;20192;-72
2021/03/20 00:37:47;;;;;;;9.73;8.82;;;;;;;;;;5052035;28;20193;-72
2021/03/20 00:40:16;;;;;;;8.75;7.40;;;;;;;;;;5062348;28;20209;-72
2021/03/20 00:42:42;;;;;;;11.27;8.45;;;;;;;;;;5067744;28;20322;-73
2021/03/20 00:45:10;;;;;;;10.05;9.15;;;;;;;;;;5069802;28;20208;-72
2021/03/20 00:47:36;;;;;;;8.73;7.93;;;;;;;;;;5044564;28;20649;-71
2021/03/20 00:50:03;;;;;;;11.38;8.52;;;;;;;;;;5064538;28;20232;-71
2021/03/20 00:52:29;;;;;;;10.93;9.80;;;;;;;;;;5070137;28;20180;-71
2021/03/20 00:54:55;;;;;;;9.97;9.03;;;;;;;;;;5053186;28;20580;-71
2021/03/20 00:57:21;;;;;;;9.47;8.53;;;;;;;;;;5054144;28;20934;-71
2021/03/20 00:59:47;;;;;;;8.63;7.82;;;;;;;;;;5058354;28;20454;-71
2021/03/20 01:02:13;;;;;;;9.70;8.05;;;;;;;;;;5055827;28;20177;-71
2021/03/20 01:04:40;;;;;;;7.50;6.80;;;;;;;;;;5063668;28;20279;-71
2021/03/20 01:07:05;;;;;;;10.07;8.45;;;;;;;;;;5051603;28;20174;-71
2021/03/20 01:09:32;;;;;;;9.07;8.07;;;;;;;;;;5060658;28;20200;-71
2021/03/20 01:11:58;;;;;;;9.85;8.52;;;;;;;;;;5065007;28;20433;-70
2021/03/20 01:14:24;;;;;;;8.60;7.22;;;;;;;;;;5056429;28;20601;-71
2021/03/20 01:16:50;;;;;;;9.80;8.70;;;;;;;;;;5067450;28;20260;-72
2021/03/20 01:19:16;;;;;;;8.73;7.78;;;;;;;;;;5071598;28;20455;-72
2021/03/20 01:21:42;;;;;;;8.00;7.20;;;;;;;;;;5070547;28;20641;-72
2021/03/20 01:24:08;;;;;;;9.43;8.43;;;;;;;;;;5070982;28;20303;-71
2021/03/20 01:26:34;;;;;;;9.88;8.48;;;;;;;;;;5049481;28;20536;-71
2021/03/20 01:29:00;;;;;;;10.40;8.00;;;;;;;;;;5066082;28;20222;-71
2021/03/20 01:31:26;;;;;;;10.20;8.20;;;;;;;;;;5068797;28;20193;-72
2021/03/20 01:33:52;;;;;;;10.02;8.50;;;;;;;;;;5053961;28;20440;-71
2021/03/20 01:36:18;;;;;;;8.75;7.95;;;;;;;;;;5051278;28;20177;-71
2021/03/20 01:38:44;;;;;;;8.93;8.05;;;;;;;;;;5062449;28;20252;-71
2021/03/20 01:41:18;;;;;;;8.95;8.05;;;;;;;;;;5067338;28;20192;-71
2021/03/20 01:43:44;;;;;;;9.68;8.57;;;;;;;;;;5067684;28;20196;-71
2021/03/20 01:46:25;;;;;;;10.63;8.45;;;;;;;;;;5065025;28;20185;-71
2021/03/20 01:48:51;;;;;;;9.13;7.82;;;;;;;;;;5058788;28;20188;-71
2021/03/20 01:51:17;;;;;;;9.20;8.40;;;;;;;;;;5048784;28;20188;-71
2021/03/20 01:53:45;;;;;;;11.90;9.10;;;;;;;;;;5074302;28;20435;-72
2021/03/20 01:56:13;;;;;;;9.88;8.80;;;;;;;;;;5074428;28;20488;-71
2021/03/20 01:58:40;;;;;;;9.57;8.57;;;;;;;;;;5037205;28;20555;-71
2021/03/20 02:01:08;;;;;;;9.80;8.80;;;;;;;;;;5062993;28;20213;-71
2021/03/20 02:03:35;;;;;;;13.20;9.13;;;;;;;;;;5070686;28;20201;-71
2021/03/20 02:06:01;;;;;;;9.98;8.98;;;;;;;;;;5063032;28;20498;-71
2021/03/20 02:08:28;;;;;;;8.13;7.32;;;;;;;;;;5068198;28;20549;-71
2021/03/20 02:10:56;;;;;;;8.80;8.00;;;;;;;;;;5073431;28;20205;-70
2021/03/20 02:13:28;;;;;;;12.80;8.82;;;;;;;;;;5064931;28;20184;-71
2021/03/20 02:16:12;;;;;;;11.40;9.23;;;;;;;;;;5068464;28;20177;-71
2021/03/20 02:18:44;;;;;;;9.20;8.35;;;;;;;;;;5073349;28;20226;-71
2021/03/20 02:21:16;;;;;;;8.85;7.95;;;;;;;;;;5066568;28;20204;-71
2021/03/20 02:23:59;;;;;;;8.75;7.85;;;;;;;;;;5054193;28;20202;-71
2021/03/20 02:26:34;;;;;;;10.50;9.40;;;;;;;;;;5070954;28;20260;-71
2021/03/20 02:29:16;;;;;;;8.48;7.68;;;;;;;;;;5037763;28;20308;-71
2021/03/20 02:31:56;;;;;;;10.05;8.55;;;;;;;;;;5063976;28;20252;-71
2021/03/20 02:34:22;;;;;;;10.93;9.65;;;;;;;;;;5057183;28;20594;-71
2021/03/20 02:36:57;;;;;;;9.03;8.33;;;;;;;;;;5068761;28;20205;-71
2021/03/20 02:39:36;;;;;;;8.90;8.00;;;;;;;;;;5070058;28;20475;-71
2021/03/20 02:42:06;;;;;;;8.80;8.00;;;;;;;;;;5068902;28;20616;-71
2021/03/20 02:44:36;;;;;;;9.88;8.88;;;;;;;;;;5071457;28;20279;-71
2021/03/20 02:47:04;;;;;;;9.45;8.45;;;;;;;;;;5068528;28;20536;-71
2021/03/20 02:49:30;;;;;;;9.07;8.00;;;;;;;;;;5054901;28;20205;-71
2021/03/20 02:52:00;;;;;;;9.27;8.37;;;;;;;;;;5059637;28;20301;-71
2021/03/20 02:54:46;;;;;;;10.07;9.07;;;;;;;;;;5071422;28;20427;-71
2021/03/20 02:57:17;;;;;;;10.68;8.57;;;;;;;;;;5061383;28;20270;-71
2021/03/20 02:59:46;;;;;;;10.27;8.48;;;;;;;;;;5045597;28;20211;-71
2021/03/20 03:02:13;;;;;;;9.55;8.55;;;;;;;;;;5064384;28;20188;-71
2021/03/20 03:04:51;;;;;;;8.63;7.82;;;;;;;;;;5061529;28;20197;-71
2021/03/20 03:07:21;;;;;;;9.65;8.68;;;;;;;;;;5054676;28;20252;-71
2021/03/20 03:09:53;;;;;;;9.10;8.23;;;;;;;;;;5068532;28;20615;-71
2021/03/20 03:12:24;;;;;;;8.60;7.80;;;;;;;;;;5055357;28;20187;-71
2021/03/20 03:14:53;;;;;;;9.32;8.32;;;;;;;;;;5064003;28;20256;-71
2021/03/20 03:17:21;;;;;;;10.25;9.02;;;;;;;;;;5064469;28;20189;-71
2021/03/20 03:19:49;;;;;;;8.77;8.00;;;;;;;;;;5061993;28;20630;-72
2021/03/20 03:22:24;;;;;;;10.70;8.45;;;;;;;;;;5038675;28;20178;-71
2021/03/20 03:24:51;;;;;;;9.70;8.65;;;;;;;;;;5062832;28;20283;-71
2021/03/20 03:27:18;;;;;;;8.38;7.57;;;;;;;;;;5056421;28;20640;-71
2021/03/20 03:29:44;;;;;;;11.02;8.77;;;;;;;;;;5063574;28;20201;-71
2021/03/20 03:32:21;;;;;;;10.10;9.10;;;;;;;;;;5057068;28;20173;-71
2021/03/20 03:35:06;;;;;;;9.95;7.82;;;;;;;;;;5059530;28;20431;-71
2021/03/20 03:37:46;;;;;;;7.85;7.15;;;;;;;;;;5071438;28;20266;-71
2021/03/20 03:40:39;;;;;;;8.25;7.45;;;;;;;;;;5065748;28;20580;-71
2021/03/20 03:43:05;;;;;;;7.82;7.03;;;;;;;;;;5062080;28;20671;-71
2021/03/20 03:45:31;;;;;;;7.40;6.70;;;;;;;;;;5064024;28;20228;-71
2021/03/20 03:47:58;;;;;;;7.95;6.57;;;;;;;;;;5064305;28;20407;-71
2021/03/20 03:50:26;;;;;;;7.40;6.10;;;;;;;;;;5072182;28;20216;-71
2021/03/20 03:52:52;;;;;;;6.55;5.95;;;;;;;;;;5058931;28;20597;-71
2021/03/20 03:55:19;;;;;;;6.60;5.75;;;;;;;;;;5066038;28;20239;-71
2021/03/20 03:58:03;;;;;;;11.10;6.35;;;;;;;;;;5063874;28;20185;-72
2021/03/20 04:00:32;;;;;;;6.85;5.45;;;;;;;;;;5064313;28;20548;-71
2021/03/20 04:03:01;;;;;;;8.00;6.30;;;;;;;;;;5071644;28;20216;-70
2021/03/20 04:05:27;;;;;;;8.05;5.93;;;;;;;;;;5062305;28;20324;-71
2021/03/20 04:07:56;;;;;;;5.95;5.32;;;;;;;;;;5052988;28;20185;-72
2021/03/20 04:10:38;;;;;;;7.05;5.70;;;;;;;;;;5064453;28;20630;-72
2021/03/20 04:13:03;;;;;;;5.20;4.70;;;;;;;;;;5069536;28;20184;-71
2021/03/20 04:15:32;;;;;;;8.60;6.00;;;;;;;;;;5071461;28;20621;-71
2021/03/20 04:18:03;;;;;;;5.35;4.85;;;;;;;;;;5047561;28;20436;-71
2021/03/20 04:20:37;;;;;;;5.40;4.90;;;;;;;;;;5068125;28;20611;-71
2021/03/20 04:23:06;;;;;;;5.70;5.18;;;;;;;;;;5067034;28;20190;-72
2021/03/20 04:25:32;;;;;;;6.43;5.05;;;;;;;;;;5063055;28;20621;-71
2021/03/20 04:28:16;;;;;;;7.37;5.40;;;;;;;;;;5072399;28;20252;-71
2021/03/20 04:30:45;;;;;;;4.20;3.90;;;;;;;;;;5063617;28;20442;-71
2021/03/20 04:33:11;;;;;;;6.07;4.63;;;;;;;;;;5053615;28;20184;-71
2021/03/20 04:35:39;;;;;;;7.90;4.73;;;;;;;;;;5053059;28;20182;-71
2021/03/20 04:38:06;;;;;;;4.45;3.97;;;;;;;;;;5064789;28;20423;-71
2021/03/20 04:40:50;;;;;;;4.30;3.90;;;;;;;;;;5063678;28;20204;-71
2021/03/20 04:43:17;;;;;;;5.35;4.55;;;;;;;;;;5067724;28;20601;-71
2021/03/20 04:45:47;;;;;;;6.30;4.57;;;;;;;;;;5070345;28;20191;-71
2021/03/20 04:48:23;;;;;;;5.18;4.65;;;;;;;;;;5071713;28;20181;-71
2021/03/20 04:50:52;;;;;;;4.95;4.22;;;;;;;;;;5071288;28;20801;-71
2021/03/20 04:53:18;;;;;;;6.82;4.82;;;;;;;;;;5054468;28;20213;-71
2021/03/20 04:55:44;;;;;;;7.95;3.80;;;;;;;;;;5062130;28;20205;-72
2021/03/20 04:58:24;;;;;;;7.60;3.60;;;;;;;;;;5071684;28;20177;-71
2021/03/20 05:00:51;;;;;;;5.32;4.05;;;;;;;;;;5071187;28;20668;-71
2021/03/20 05:03:17;;;;;;;4.75;4.28;;;;;;;;;;5054430;28;20185;-71
2021/03/20 05:05:51;;;;;;;5.00;4.50;;;;;;;;;;5054616;28;20208;-71
2021/03/20 05:08:25;;;;;;;4.75;4.25;;;;;;;;;;5063289;28;20185;-71
2021/03/20 05:11:01;;;;;;;5.40;4.88;;;;;;;;;;5065639;28;20189;-71
2021/03/20 05:13:50;;;;;;;5.30;4.40;;;;;;;;;;5067898;28;20177;-71
2021/03/20 05:16:16;;;;;;;5.13;4.63;;;;;;;;;;5028169;28;20205;-71
2021/03/20 05:18:46;;;;;;;7.80;4.93;;;;;;;;;;5059045;28;20178;-72
2021/03/20 05:21:13;;;;;;;5.75;4.80;;;;;;;;;;5064573;28;20431;-71
2021/03/20 05:23:39;;;;;;;6.53;4.30;;;;;;;;;;5060172;28;20425;-71
2021/03/20 05:26:05;;;;;;;5.13;4.63;;;;;;;;;;5069772;28;20263;-71
2021/03/20 05:28:31;;;;;;;5.93;5.35;;;;;;;;;;5067226;28;20902;-72
2021/03/20 05:31:00;;;;;;;5.07;4.47;;;;;;;;;;5068877;28;20214;-71
2021/03/20 05:33:26;;;;;;;5.45;4.95;;;;;;;;;;5041828;28;20658;-71
2021/03/20 05:35:52;;;;;;;6.15;4.45;;;;;;;;;;5070715;28;20184;-72
2021/03/20 05:38:18;;;;;;;6.72;4.95;;;;;;;;;;5069154;28;20185;-72
2021/03/20 05:40:44;;;;;;;5.32;4.93;;;;;;;;;;5069512;28;20246;-72
2021/03/20 05:43:28;;;;;;;4.70;4.30;;;;;;;;;;5061597;28;20181;-72
2021/03/20 05:46:12;;;;;;;5.55;4.75;;;;;;;;;;5066137;28;20797;-72
2021/03/20 05:48:42;;;;;;;9.23;5.00;;;;;;;;;;5058512;28;20177;-69
2021/03/20 05:51:26;;;;;;;4.68;4.28;;;;;;;;;;5070092;28;20205;-69
2021/03/20 05:53:55;;;;;;;5.90;4.70;;;;;;;;;;5060691;28;20189;-69
2021/03/20 05:56:40;;;;;;;4.75;4.25;;;;;;;;;;5068481;28;20191;-69
2021/03/20 05:59:12;;;;;;;4.35;3.95;;;;;;;;;;5069830;28;20218;-69
2021/03/20 06:02:06;;;;;;;4.65;4.13;;;;;;;;;;5073240;28;20189;-69
2021/03/20 06:04:38;;;;;;;5.63;4.78;;;;;;;;;;5065846;28;20201;-69
2021/03/20 06:07:13;;;;;;;5.30;4.80;;;;;;;;;;5071290;28;20182;-69
2021/03/20 06:09:57;;;;;;;5.82;4.38;;;;;;;;;;5061064;28;20196;-69
2021/03/20 06:12:56;;;;;;;4.60;4.20;;;;;;;;;;5076812;28;20177;-69
2021/03/20 06:15:22;;;;;;;4.90;4.50;;;;;;;;;;5003688;28;20242;-69
2021/03/20 06:18:07;;;;;;;7.75;5.05;;;;;;;;;;5065885;28;20531;-69
2021/03/20 06:20:38;;;;;;;8.45;4.68;;;;;;;;;;5067573;28;20236;-69
2021/03/20 06:23:11;;;;;;;4.90;4.50;;;;;;;;;;5077203;28;20185;-69
2021/03/20 06:25:46;;;;;;;5.80;4.25;;;;;;;;;;5077443;28;20257;-69
2021/03/20 06:28:13;;;;;;;4.25;3.85;;;;;;;;;;5077804;28;20204;-69
2021/03/20 06:30:42;;;;;;;7.32;4.90;;;;;;;;;;5077417;28;20216;-69
2021/03/20 06:33:09;;;;;;;6.03;4.00;;;;;;;;;;5067650;28;20177;-69
2021/03/20 06:35:38;;;;;;;8.40;3.90;;;;;;;;;;5067022;28;20185;-69
2021/03/20 06:38:07;;;;;;;3.97;3.60;;;;;;;;;;5073483;28;20702;-69
2021/03/20 06:40:35;;;;;;;4.70;4.25;;;;;;;;;;5074024;28;20193;-69
2021/03/20 06:43:01;;;;;;;4.22;3.80;;;;;;;;;;5073865;28;20196;-69
2021/03/20 06:45:29;;;;;;;5.93;3.83;;;;;;;;;;5074100;28;20259;-69
2021/03/20 06:47:58;;;;;;;5.80;4.22;;;;;;;;;;5073465;28;20744;-69
2021/03/20 06:50:37;;;;;;;7.45;3.53;;;;;;;;;;5057912;28;20205;-69
2021/03/20 06:53:05;;;;;;;6.05;4.80;;;;;;;;;;5053657;28;20176;-69
2021/03/20 06:55:32;;;;;;;3.70;3.40;;;;;;;;;;5053983;28;20178;-69
2021/03/20 06:57:59;;;;;;;5.40;4.25;;;;;;;;;;5054160;28;20192;-69
2021/03/20 07:00:31;;;;;;;10.45;4.50;;;;;;;;;;5072438;28;20201;-69
2021/03/20 07:03:00;;;;;;;6.32;3.97;;;;;;;;;;5073475;28;20322;-69
2021/03/20 07:05:44;;;;;;;4.25;3.65;;;;;;;;;;5047057;28;20203;-69
2021/03/20 07:08:20;;;;;;;5.25;4.53;;;;;;;;;;5053746;28;20548;-69
2021/03/20 07:10:51;;;;;;;5.70;4.78;;;;;;;;;;5053568;28;20200;-69
2021/03/20 07:13:28;;;;;;;5.80;3.78;;;;;;;;;;5037036;28;20258;-69
2021/03/20 07:16:04;;;;;;;7.07;4.38;;;;;;;;;;5070886;28;20233;-69
2021/03/20 07:18:35;;;;;;;4.78;4.05;;;;;;;;;;5073135;28;20176;-69
2021/03/20 07:21:02;;;;;;;4.20;3.80;;;;;;;;;;5072758;28;20208;-69
2021/03/20 07:23:28;;;;;;;13.40;4.15;;;;;;;;;;5073165;28;20626;-70
2021/03/20 07:26:05;;;;;;;10.90;4.65;;;;;;;;;;5073426;28;20173;-69
2021/03/20 07:28:31;;;;;;;7.13;4.30;;;;;;;;;;5073340;28;20553;-68
2021/03/20 07:30:59;;;;;;;7.93;3.92;;;;;;;;;;5073035;28;20573;-68
2021/03/20 07:33:47;;;;;;;5.05;4.25;;;;;;;;;;5070575;28;20704;-68
2021/03/20 07:36:35;;;;;;;7.72;4.45;;;;;;;;;;5069609;28;20177;-68
2021/03/20 07:39:13;;;;;;;4.70;3.75;;;;;;;;;;5072893;28;20180;-68
2021/03/20 07:41:47;;;;;;;7.55;5.07;;;;;;;;;;5071767;28;20229;-68
2021/03/20 07:44:13;;;;;;;5.57;4.38;;;;;;;;;;5072721;28;20196;-68
2021/03/20 07:46:40;;;;;;;5.80;3.88;;;;;;;;;;5072383;28;20177;-68
2021/03/20 07:49:17;;;;;;;7.75;4.97;;;;;;;;;;5072541;28;20164;-68
2021/03/20 07:51:47;;;;;;;8.82;4.28;;;;;;;;;;5072666;28;20165;-68
2021/03/20 07:54:30;;;;;;;6.53;4.47;;;;;;;;;;5072741;28;20181;-68
2021/03/20 07:57:05;;;;;;;5.05;4.22;;;;;;;;;;5072679;28;20192;-68
2021/03/20 07:59:32;;;;;;;6.75;3.92;;;;;;;;;;5072351;28;20561;-68
2021/03/20 08:01:59;;;;;;;6.47;4.28;;;;;;;;;;5071808;28;20177;-69
2021/03/20 08:04:44;;;;;;;5.55;4.75;;;;;;;;;;5062316;28;20288;-68
2021/03/20 08:07:10;;;;;;;5.38;4.05;;;;;;;;;;5066110;28;20558;-68
2021/03/20 08:09:36;;;;;;;4.85;4.45;;;;;;;;;;5072431;28;20203;-68
2021/03/20 08:12:02;;;;;;;8.07;5.50;;;;;;;;;;5072184;28;20169;-68
2021/03/20 08:14:39;;;;;;;7.00;4.40;;;;;;;;;;5072328;28;20411;-68
2021/03/20 08:17:05;;;;;;;5.45;4.50;;;;;;;;;;5060061;28;20907;-68
2021/03/20 08:19:32;;;;;;;4.65;4.20;;;;;;;;;;5051905;28;20216;-68
2021/03/20 08:22:07;;;;;;;5.20;3.88;;;;;;;;;;5052020;28;20260;-68
2021/03/20 08:24:46;;;;;;;4.65;4.25;;;;;;;;;;5052127;28;20243;-68
2021/03/20 08:27:35;;;;;;;6.80;5.07;;;;;;;;;;5052252;28;20194;-68
2021/03/20 08:30:21;;;;;;;5.03;4.50;;;;;;;;;;5041650;28;20212;-68
2021/03/20 08:32:56;;;;;;;5.25;4.05;;;;;;;;;;5043576;28;20298;-68
2021/03/20 08:35:26;;;;;;;4.72;4.32;;;;;;;;;;5063485;28;20212;-68
2021/03/20 08:38:04;;;;;;;7.00;4.72;;;;;;;;;;5071178;28;20717;-68
2021/03/20 08:40:53;;;;;;;6.13;4.18;;;;;;;;;;5071877;28;20279;-68
2021/03/20 08:43:28;;;;;;;5.25;4.18;;;;;;;;;;5071643;28;20589;-68
2021/03/20 08:45:54;;;;;;;5.95;4.50;;;;;;;;;;5071988;28;20207;-68
2021/03/20 08:48:40;;;;;;;6.07;5.45;;;;;;;;;;5071050;28;20276;-68
2021/03/20 08:51:15;;;;;;;8.88;5.22;;;;;;;;;;5071512;28;20200;-68
2021/03/20 08:53:46;;;;;;;7.32;5.05;;;;;;;;;;5071595;28;20168;-68
2021/03/20 08:56:17;;;;;;;5.80;4.68;;;;;;;;;;5071201;28;20176;-68
2021/03/20 08:58:43;;;;;;;8.07;5.53;;;;;;;;;;5071883;28;20199;-68
2021/03/20 09:01:22;;;;;;;5.20;4.00;;;;;;;;;;5071707;28;20789;-68
2021/03/20 09:03:50;;;;;;;4.53;4.13;;;;;;;;;;5064525;28;20465;-68
2021/03/20 09:06:19;;;;;;;7.32;4.85;;;;;;;;;;5062751;28;20200;-68
2021/03/20 09:08:46;;;;;;;6.10;4.60;;;;;;;;;;5053654;28;20651;-68
2021/03/20 09:11:22;;;;;;;5.55;4.68;;;;;;;;;;5071505;28;20192;-69
2021/03/20 09:14:04;;;;;;;6.90;4.38;;;;;;;;;;5064632;28;20212;-69
2021/03/20 09:16:36;;;;;;;6.55;4.68;;;;;;;;;;5067089;28;20644;-68
2021/03/20 09:19:04;;;;;;;6.28;4.30;;;;;;;;;;5067927;28;20288;-68
2021/03/20 09:21:31;;;;;;;4.15;3.75;;;;;;;;;;5052899;28;20181;-69
2021/03/20 09:23:57;;;;;;;5.18;4.68;;;;;;;;;;5071416;28;20200;-68
2021/03/20 09:26:43;;;;;;;6.05;5.03;;;;;;;;;;5071499;28;20645;-68
2021/03/20 09:29:12;;;;;;;4.43;4.03;;;;;;;;;;5051285;28;20197;-68
2021/03/20 09:31:47;;;;;;;4.65;4.25;;;;;;;;;;5057709;28;20699;-68
2021/03/20 09:34:34;;;;;;;4.43;4.03;;;;;;;;;;5062519;28;20209;-68
2021/03/20 09:37:18;;;;;;;4.70;4.20;;;;;;;;;;5061788;28;20583;-69
2021/03/20 09:39:45;;;;;;;5.13;4.65;;;;;;;;;;5070230;28;20221;-68
2021/03/20 09:42:29;;;;;;;6.18;5.03;;;;;;;;;;5070488;28;20212;-69
2021/03/20 09:44:56;;;;;;;5.97;5.28;;;;;;;;;;5071494;28;20204;-68
2021/03/20 09:47:25;;;;;;;5.07;4.63;;;;;;;;;;5071298;28;20538;-68
2021/03/20 09:49:53;;;;;;;4.95;4.30;;;;;;;;;;5070937;28;20630;-69
2021/03/20 09:52:52;;;;;;;5.85;5.22;;;;;;;;;;5071444;28;20632;-68
2021/03/20 09:55:30;;;;;;;8.07;4.75;;;;;;;;;;5037662;28;20675;-68
2021/03/20 09:57:57;;;;;;;8.02;5.20;;;;;;;;;;5071176;28;20179;-69
2021/03/20 10:00:57;;;;;;;5.47;4.72;;;;;;;;;;5071377;28;20685;-69
2021/03/20 10:03:39;;;;;;;7.15;4.45;;;;;;;;;;5035972;28;20671;-69
2021/03/20 10:06:25;;;;;;;3.85;3.47;;;;;;;;;;5066214;28;20271;-69
2021/03/20 10:09:09;;;;;;;4.93;3.55;;;;;;;;;;5087178;28;20199;-69
2021/03/20 10:11:44;;;;;;;4.95;4.20;;;;;;;;;;5094711;28;20183;-68
2021/03/20 10:14:25;;;;;;;3.53;3.25;;;;;;;;;;5095165;28;20230;-68
2021/03/20 10:17:24;;;;;;;4.22;3.63;;;;;;;;;;5094954;28;20176;-68
2021/03/20 10:19:51;;;;;;;5.30;3.30;;;;;;;;;;5038216;28;20282;-69
2021/03/20 10:22:25;;;;;;;4.55;3.20;;;;;;;;;;5064549;28;20185;-69
2021/03/20 10:24:52;;;;;;;8.77;3.35;;;;;;;;;;5054516;28;20575;-69
2021/03/20 10:27:26;;;;;;;4.28;2.95;;;;;;;;;;5072020;28;20188;-69
2021/03/20 10:29:52;;;;;;;3.38;2.95;;;;;;;;;;5072954;28;20196;-69
2021/03/20 10:32:21;;;;;;;3.95;3.55;;;;;;;;;;5074256;28;20217;-69
2021/03/20 10:34:49;;;;;;;3.42;2.63;;;;;;;;;;5064125;28;20595;-69
2021/03/20 10:37:15;;;;;;;3.85;3.55;;;;;;;;;;5067740;28;20200;-69
2021/03/20 10:39:43;;;;;;;6.03;3.60;;;;;;;;;;5074192;28;21032;-68
2021/03/20 10:42:09;;;;;;;3.40;3.20;;;;;;;;;;5063703;28;20170;-69
2021/03/20 10:44:40;;;;;;;3.73;3.43;;;;;;;;;;5074154;28;20204;-69
2021/03/20 10:47:08;;;;;;;3.78;3.10;;;;;;;;;;5074250;28;20420;-69
2021/03/20 10:49:38;;;;;;;4.70;3.75;;;;;;;;;;5072885;28;20193;-68
2021/03/20 10:52:06;;;;;;;4.82;3.10;;;;;;;;;;5073237;28;20674;-69
2021/03/20 10:54:40;;;;;;;2.85;2.53;;;;;;;;;;5057286;28;20181;-69
2021/03/20 10:57:18;;;;;;;3.03;2.72;;;;;;;;;;5054067;28;20173;-69
2021/03/20 10:59:46;;;;;;;3.30;2.40;;;;;;;;;;5053866;28;20193;-69
2021/03/20 11:02:23;;;;;;;3.03;2.72;;;;;;;;;;5071005;28;20188;-69
2021/03/20 11:04:49;;;;;;;4.80;2.88;;;;;;;;;;5060337;28;20198;-69
2021/03/20 11:07:23;;;;;;;2.72;2.50;;;;;;;;;;5052876;28;20177;-69
2021/03/20 11:09:49;;;;;;;3.10;2.90;;;;;;;;;;5053721;28;20251;-69
2021/03/20 11:12:27;;;;;;;3.22;2.92;;;;;;;;;;5053469;28;20181;-69
2021/03/20 11:14:55;;;;;;;3.15;2.90;;;;;;;;;;5053774;28;20183;-69
2021/03/20 11:17:23;;;;;;;3.92;2.78;;;;;;;;;;5053239;28;20169;-69
2021/03/20 11:19:58;;;;;;;2.47;2.30;;;;;;;;;;5056025;28;20243;-69
2021/03/20 11:22:37;;;;;;;2.97;2.55;;;;;;;;;;5062222;28;20259;-69
2021/03/20 11:25:09;;;;;;;3.15;2.58;;;;;;;;;;5071939;28;20687;-69
2021/03/20 11:27:37;;;;;;;2.65;2.33;;;;;;;;;;5072510;28;20200;-69
2021/03/20 11:30:06;;;;;;;2.08;1.88;;;;;;;;;;5074043;28;20193;-70
2021/03/20 11:32:34;;;;;;;2.85;2.35;;;;;;;;;;5068233;28;20542;-69
2021/03/20 11:35:18;;;;;;;2.63;1.80;;;;;;;;;;5079386;28;20189;-70
2021/03/20 11:37:45;;;;;;;3.22;2.00;;;;;;;;;;5070194;28;20184;-69
2021/03/20 11:40:28;;;;;;;2.10;2.00;;;;;;;;;;5066182;28;20200;-69
2021/03/20 11:42:56;;;;;;;2.58;2.00;;;;;;;;;;5068992;28;20192;-69
2021/03/20 11:45:25;;;;;;;3.30;2.75;;;;;;;;;;5083697;28;20212;-69
2021/03/20 11:47:53;;;;;;;3.28;2.05;;;;;;;;;;5070159;28;20178;-69
2021/03/20 11:50:37;;;;;;;2.53;2.30;;;;;;;;;;5066783;28;20670;-69
2021/03/20 11:53:23;;;;;;;4.78;2.40;;;;;;;;;;5062267;28;20247;-70
2021/03/20 11:55:51;;;;;;;3.83;2.17;;;;;;;;;;5057051;28;20189;-70
2021/03/20 11:58:26;;;;;;;4.20;2.60;;;;;;;;;;5057164;28;20262;-70
2021/03/20 12:00:52;;;;;;;2.53;2.33;;;;;;;;;;5063670;28;20202;-70
2021/03/20 12:03:21;;;;;;;3.13;2.77;;;;;;;;;;5066830;28;20414;-70
2021/03/20 12:05:47;;;;;;;3.03;2.73;;;;;;;;;;5051700;28;20464;-70
2021/03/20 12:08:19;;;;;;;4.03;2.33;;;;;;;;;;5060896;28;20409;-70
2021/03/20 12:11:17;;;;;;;2.97;2.40;;;;;;;;;;5081042;28;20470;-70
2021/03/20 12:13:43;;;;;;;3.30;2.40;;;;;;;;;;5019711;28;20445;-70
2021/03/20 12:16:23;;;;;;;3.43;2.60;;;;;;;;;;5067980;28;20437;-70
2021/03/20 12:18:49;;;;;;;3.00;2.80;;;;;;;;;;5055460;28;20469;-71
2021/03/20 12:21:15;;;;;;;4.00;2.53;;;;;;;;;;5061933;28;20455;-71
2021/03/20 12:23:53;;;;;;;2.70;2.23;;;;;;;;;;5064314;28;20396;-70
2021/03/20 12:26:22;;;;;;;3.03;2.50;;;;;;;;;;5048098;28;20427;-71
2021/03/20 12:28:48;;;;;;;3.17;2.93;;;;;;;;;;5069847;28;20394;-70
2021/03/20 12:31:16;;;;;;;3.30;3.03;;;;;;;;;;5055477;28;20443;-70
2021/03/20 12:33:46;;;;;;;3.13;2.87;;;;;;;;;;5079246;28;20436;-69
2021/03/20 12:36:16;;;;;;;2.80;2.60;;;;;;;;;;5060936;28;20417;-70
2021/03/20 12:38:42;;;;;;;2.70;2.50;;;;;;;;;;5079611;28;20782;-70
2021/03/20 12:41:08;;;;;;;2.30;2.10;;;;;;;;;;5072449;28;20526;-69
2021/03/20 12:43:38;;;;;;;2.63;2.17;;;;;;;;;;5071916;28;20469;-68
2021/03/20 12:46:05;;;;;;;3.10;2.80;;;;;;;;;;5060287;28;20589;-71
2021/03/20 12:48:32;;;;;;;3.30;2.73;;;;;;;;;;5054239;28;20970;-70
2021/03/20 12:51:02;;;;;;;2.60;2.00;;;;;;;;;;5071279;28;20489;-70
2021/03/20 12:53:28;;;;;;;2.93;2.60;;;;;;;;;;5070717;28;20403;-70
2021/03/20 12:55:55;;;;;;;2.50;2.30;;;;;;;;;;5071772;28;20415;-71
2021/03/20 12:58:21;;;;;;;2.70;2.10;;;;;;;;;;5072118;28;20410;-70
2021/03/20 13:00:47;;;;;;;3.27;2.40;;;;;;;;;;5072891;28;20491;-70
2021/03/20 13:03:13;;;;;;;2.63;2.20;;;;;;;;;;5073491;28;20424;-70
2021/03/20 13:05:42;;;;;;;2.63;2.40;;;;;;;;;;5073519;28;20465;-70
2021/03/20 13:08:08;;;;;;;10.20;3.30;;;;;;;;;;5072909;28;20420;-70
2021/03/20 13:10:34;;;;;;;2.70;2.50;;;;;;;;;;5071572;28;20454;-70
2021/03/20 13:13:00;;;;;;;2.57;2.37;;;;;;;;;;5073722;28;20428;-71
2021/03/20 13:15:27;;;;;;;2.10;1.90;;;;;;;;;;5065318;28;20437;-69
2021/03/20 13:17:53;;;;;;;2.27;1.90;;;;;;;;;;5073894;28;20829;-70
2021/03/20 13:20:21;;;;;;;2.40;2.20;;;;;;;;;;5073856;28;20475;-70
2021/03/20 13:22:47;;;;;;;2.23;2.10;;;;;;;;;;5073830;28;20899;-70
2021/03/20 13:25:22;;;;;;;2.63;2.50;;;;;;;;;;5075356;28;20466;-70
2021/03/20 13:27:48;;;;;;;3.47;2.40;;;;;;;;;;5075011;28;20397;-70
2021/03/20 13:30:14;;;;;;;2.63;2.43;;;;;;;;;;5075193;28;20434;-70
2021/03/20 13:32:40;;;;;;;2.80;2.40;;;;;;;;;;5075099;28;20936;-72
2021/03/20 13:35:06;;;;;;;1.83;1.50;;;;;;;;;;5075542;28;20418;-70
2021/03/20 13:37:32;;;;;;;3.20;2.00;;;;;;;;;;5057115;28;20926;-71
2021/03/20 13:39:58;;;;;;;2.20;2.10;;;;;;;;;;5073746;28;20513;-70
2021/03/20 13:42:24;;;;;;;2.20;2.00;;;;;;;;;;5057007;28;20495;-70
2021/03/20 13:44:52;;;;;;;1.47;1.37;;;;;;;;;;5055230;28;20557;-71
2021/03/20 13:47:17;;;;;;;1.90;1.80;;;;;;;;;;5075074;28;20450;-68
2021/03/20 13:49:43;;;;;;;1.70;1.60;;;;;;;;;;5077175;28;20438;-70
2021/03/20 13:52:09;;;;;;;1.57;1.47;;;;;;;;;;5077223;28;20869;-70
2021/03/20 13:54:35;;;;;;;2.40;2.20;;;;;;;;;;5059291;28;20425;-71
2021/03/20 13:57:01;;;;;;;3.67;2.40;;;;;;;;;;5077127;28;20420;-71
2021/03/20 13:59:27;;;;;;;3.83;2.43;;;;;;;;;;5075674;28;20944;-71
2021/03/20 14:01:53;;;;;;;2.00;1.90;;;;;;;;;;5075573;28;20976;-71
2021/03/20 14:04:19;;;;;;;2.37;2.10;;;;;;;;;;5075660;28;20453;-71
2021/03/20 14:06:45;;;;;;;6.10;4.53;;;;;;;;;;5078117;28;20406;-71
2021/03/20 14:09:11;;;;;;;4.43;3.70;;;;;;;;;;5059360;28;20439;-71
2021/03/20 14:11:37;;;;;;;4.33;2.73;;;;;;;;;;5077662;28;20871;-71
2021/03/20 14:14:04;;;;;;;34.10;20.37;;;;;;;;;;5083940;28;20415;-70
2021/03/20 14:16:30;;;;;;;12.70;8.90;;;;;;;;;;5063095;28;20493;-70
2021/03/20 14:18:56;;;;;;;8.63;6.17;;;;;;;;;;5065290;28;20440;-70
2021/03/20 14:21:22;;;;;;;2.37;2.17;;;;;;;;;;5061994;28;20923;-70
2021/03/20 14:23:49;;;;;;;2.40;2.20;;;;;;;;;;5061902;28;20482;-70
2021/03/20 14:26:15;;;;;;;5.63;3.00;;;;;;;;;;5077795;28;20924;-70
2021/03/20 14:28:41;;;;;;;5.57;3.27;;;;;;;;;;5068310;28;20408;-70
2021/03/20 14:31:07;;;;;;;5.80;3.07;;;;;;;;;;5065020;28;20808;-70
2021/03/20 14:33:33;;;;;;;2.47;2.27;;;;;;;;;;5075802;28;20409;-69
2021/03/20 14:36:01;;;;;;;2.60;2.40;;;;;;;;;;5075870;28;20435;-70
2021/03/20 14:38:28;;;;;;;2.60;2.40;;;;;;;;;;5077121;28;20490;-70
2021/03/20 14:40:54;;;;;;;4.97;2.90;;;;;;;;;;5068573;28;20436;-70
2021/03/20 14:43:20;;;;;;;2.57;2.37;;;;;;;;;;5061877;28;20431;-70
2021/03/20 14:45:47;;;;;;;4.30;2.80;;;;;;;;;;5064125;28;20477;-68
2021/03/20 14:48:16;;;;;;;2.93;2.73;;;;;;;;;;5062695;28;20384;-70
2021/03/20 14:50:42;;;;;;;2.50;2.33;;;;;;;;;;5065838;28;20408;-70
2021/03/20 14:53:08;;;;;;;3.23;2.77;;;;;;;;;;5052694;28;20549;-70
2021/03/20 14:55:34;;;;;;;4.43;2.90;;;;;;;;;;5063070;28;20439;-71
2021/03/20 14:58:00;;;;;;;4.03;2.60;;;;;;;;;;5048885;28;20182;-71
2021/03/20 15:00:36;;;;;;;3.17;2.70;;;;;;;;;;5066523;28;20206;-71
2021/03/20 15:03:02;;;;;;;2.67;2.47;;;;;;;;;;5066775;28;20424;-70